createdAt,value
2022-11-17T00:00:31.984Z,14.10
2022-11-17T00:05:36.055Z,15.73
2022-11-17T00:10:38.846Z,15.63
2022-11-17T00:15:44.619Z,15.13
2022-11-17T00:21:05.865Z,15.63
2022-11-17T00:26:08.863Z,14.38
2022-11-17T00:31:32.493Z,14.87
2022-11-17T00:36:40.712Z,15.30
2022-11-17T00:41:44.062Z,15.60
2022-11-17T00:46:47.007Z,13.90
2022-11-17T00:51:50.039Z,13.60
2022-11-17T00:56:52.988Z,13.77
2022-11-17T01:01:55.792Z,14.20
2022-11-17T01:06:58.749Z,14.37
2022-11-17T01:12:01.696Z,14.13
2022-11-17T01:17:04.539Z,14.73
2022-11-17T01:22:07.555Z,14.40
2022-11-17T01:27:10.484Z,13.73
2022-11-17T01:32:13.344Z,13.90
2022-11-17T01:37:22.019Z,13.80
2022-11-17T01:42:26.919Z,13.07
2022-11-17T01:47:47.324Z,14.80
2022-11-17T01:52:55.360Z,14.70
2022-11-17T01:58:06.591Z,13.83
2022-11-17T02:03:10.015Z,15.38
2022-11-17T02:08:13.671Z,15.90
2022-11-17T02:13:16.841Z,15.63
2022-11-17T02:18:20.133Z,14.90
2022-11-17T02:23:41.695Z,15.93
2022-11-17T02:28:52.932Z,15.23
2022-11-17T02:34:15.723Z,15.57
2022-11-17T02:39:37.094Z,14.80
2022-11-17T02:45:03.519Z,15.35
2022-11-17T02:50:10.700Z,14.67
2022-11-17T02:55:14.547Z,13.87
2022-11-17T03:00:19.689Z,14.40
2022-11-17T03:05:47.581Z,14.67
2022-11-17T03:11:04.070Z,14.53
2022-11-17T03:16:23.773Z,12.60
2022-11-17T03:21:37.098Z,10.50
2022-11-17T03:26:46.003Z,10.87
2022-11-17T03:31:52.342Z,10.63
2022-11-17T03:37:03.264Z,12.37
2022-11-17T03:42:13.564Z,12.52
2022-11-17T03:47:20.844Z,13.10
2022-11-17T03:52:25.265Z,14.00
2022-11-17T03:57:54.863Z,13.37
2022-11-17T04:03:00.906Z,14.23
2022-11-17T04:08:04.193Z,15.80
2022-11-17T04:13:27.822Z,14.23
2022-11-17T04:18:31.237Z,13.77
2022-11-17T04:23:34.297Z,14.17
2022-11-17T04:28:42.539Z,14.33
2022-11-17T04:33:54.371Z,13.23
2022-11-17T04:38:59.677Z,14.23
2022-11-17T04:44:03.748Z,15.37
2022-11-17T04:49:08.079Z,13.70
2022-11-17T04:54:13.379Z,14.23
2022-11-17T04:59:16.476Z,13.17
2022-11-17T05:04:40.016Z,12.57
2022-11-17T05:09:43.046Z,13.20
2022-11-17T05:14:47.801Z,13.23
2022-11-17T05:19:50.950Z,11.70
2022-11-17T05:24:54.183Z,11.90
2022-11-17T05:29:57.159Z,11.13
2022-11-17T05:35:00.052Z,11.57
2022-11-17T05:40:03.042Z,12.17
2022-11-17T05:45:06.744Z,10.60
2022-11-17T05:50:10.120Z,9.97
2022-11-17T05:55:13.150Z,11.30
2022-11-17T06:00:16.674Z,11.20
2022-11-17T06:05:20.844Z,11.10
2022-11-17T06:10:23.793Z,12.57
2022-11-17T06:15:27.207Z,12.60
2022-11-17T06:20:38.693Z,11.40
2022-11-17T06:25:42.048Z,11.93
2022-11-17T06:30:45.369Z,13.47
2022-11-17T06:35:49.398Z,13.10
2022-11-17T06:40:52.401Z,13.20
2022-11-17T06:45:55.274Z,15.97
2022-11-17T06:50:58.172Z,17.20
2022-11-17T06:56:04.646Z,14.83
2022-11-17T07:01:12.616Z,15.37
2022-11-17T07:06:16.291Z,15.50
2022-11-17T07:11:19.455Z,14.57
2022-11-17T07:16:23.982Z,13.63
2022-11-17T07:21:27.089Z,11.63
2022-11-17T07:26:30.740Z,11.37
2022-11-17T07:31:36.869Z,12.07
2022-11-17T07:36:39.761Z,10.87
2022-11-17T07:41:42.642Z,11.40
2022-11-17T07:46:45.656Z,12.03
2022-11-17T07:51:48.890Z,11.87
2022-11-17T07:56:51.790Z,12.93
2022-11-17T08:01:54.684Z,11.77
2022-11-17T08:06:58.449Z,12.60
2022-11-17T08:12:01.502Z,14.03
2022-11-17T08:17:04.514Z,13.27
2022-11-17T08:22:07.695Z,13.27
2022-11-17T08:27:10.670Z,11.33
2022-11-17T08:32:13.626Z,10.70
2022-11-17T08:37:16.912Z,9.10
2022-11-17T08:42:19.861Z,8.83
2022-11-17T08:47:22.962Z,9.27
2022-11-17T08:52:28.794Z,8.93
2022-11-17T08:57:32.876Z,8.90
2022-11-17T09:02:37.956Z,8.43
2022-11-17T09:07:41.426Z,6.97
2022-11-17T09:12:44.481Z,7.70
2022-11-17T09:17:48.098Z,6.38
2022-11-17T09:22:51.529Z,7.35
2022-11-17T09:27:54.548Z,6.72
2022-11-17T09:32:58.426Z,6.15
2022-11-17T09:38:01.809Z,6.82
2022-11-17T09:43:15.149Z,6.33
2022-11-17T09:48:40.711Z,6.90
2022-11-17T09:54:26.040Z,7.27
2022-11-17T09:59:31.373Z,6.50
2022-11-17T10:04:34.524Z,5.57
2022-11-17T10:09:45.568Z,5.35
2022-11-17T10:14:50.174Z,3.95
2022-11-17T10:19:53.240Z,3.38
2022-11-17T10:24:57.978Z,3.60
2022-11-17T10:30:19.719Z,3.38
2022-11-17T10:35:32.786Z,3.90
2022-11-17T10:40:39.081Z,3.42
2022-11-17T10:45:56.601Z,3.03
2022-11-17T10:51:03.228Z,3.47
2022-11-17T10:56:21.704Z,3.63
2022-11-17T11:01:30.900Z,3.57
2022-11-17T11:06:35.965Z,3.40
2022-11-17T11:11:47.810Z,4.77
2022-11-17T11:16:51.724Z,3.80
2022-11-17T11:22:34.470Z,3.80
2022-11-17T11:28:25.269Z,3.47
2022-11-17T11:33:39.116Z,3.30
2022-11-17T11:38:55.814Z,3.50
2022-11-17T11:44:19.906Z,4.07
2022-11-17T11:50:02.985Z,3.70
2022-11-17T11:55:35.400Z,3.30
2022-11-17T12:00:42.737Z,3.43
2022-11-17T12:06:40.690Z,3.23
2022-11-17T12:12:03.320Z,3.93
2022-11-17T12:17:26.072Z,3.83
2022-11-17T12:22:32.317Z,10.40
2022-11-17T12:27:35.264Z,4.20
2022-11-17T12:32:44.916Z,7.70
2022-11-17T12:37:47.800Z,3.63
2022-11-17T12:43:15.793Z,4.03
2022-11-17T12:48:33.914Z,3.10
2022-11-17T12:53:59.816Z,6.03
2022-11-17T12:59:52.318Z,5.17
2022-11-17T13:05:11.147Z,6.78
2022-11-17T13:10:29.985Z,6.77
2022-11-17T13:15:32.933Z,5.17
2022-11-17T13:20:38.693Z,5.03
2022-11-17T13:25:41.574Z,3.90
2022-11-17T13:30:47.014Z,4.17
2022-11-17T13:35:51.495Z,3.53
2022-11-17T13:40:54.548Z,5.10
2022-11-17T13:45:57.915Z,5.00
2022-11-17T13:51:39.996Z,4.60
2022-11-17T13:57:23.163Z,5.20
2022-11-17T14:02:29.468Z,6.33
2022-11-17T14:07:36.150Z,6.13
2022-11-17T14:12:39.534Z,4.13
2022-11-17T14:17:48.357Z,7.10
2022-11-17T14:23:10.391Z,5.00
2022-11-17T14:28:25.541Z,4.33
2022-11-17T14:33:28.396Z,4.87
2022-11-17T14:38:31.283Z,4.80
2022-11-17T14:43:34.561Z,4.60
2022-11-17T14:48:37.343Z,5.43
2022-11-17T14:53:42.011Z,5.53
2022-11-17T14:58:47.654Z,4.83
2022-11-17T15:03:53.129Z,5.20
2022-11-17T15:09:05.566Z,14.97
2022-11-17T15:14:10.643Z,11.23
2022-11-17T15:19:13.675Z,16.20
2022-11-17T15:24:16.947Z,13.13
2022-11-17T15:29:20.693Z,16.67
2022-11-17T15:34:23.647Z,12.57
2022-11-17T15:39:26.670Z,17.30
2022-11-17T15:44:31.947Z,19.20
2022-11-17T15:49:34.805Z,22.77
2022-11-17T15:54:37.810Z,12.87
2022-11-17T15:59:40.699Z,10.17
2022-11-17T16:04:43.710Z,9.33
2022-11-17T16:09:49.171Z,10.27
2022-11-17T16:14:53.728Z,12.67
2022-11-17T16:19:56.784Z,13.30
2022-11-17T16:24:59.733Z,11.57
2022-11-17T16:30:02.678Z,10.53
2022-11-17T16:35:06.106Z,17.33
2022-11-17T16:40:10.159Z,13.83
2022-11-17T16:45:12.833Z,16.03
2022-11-17T16:50:16.393Z,15.53
2022-11-17T16:55:19.430Z,15.67
2022-11-17T17:00:22.441Z,11.70
2022-11-17T17:05:26.301Z,12.83
2022-11-17T17:10:29.335Z,16.50
2022-11-17T17:15:33.444Z,13.20
2022-11-17T17:20:36.314Z,11.97
2022-11-17T17:25:39.445Z,9.50
2022-11-17T17:30:42.771Z,13.20
2022-11-17T17:35:47.750Z,17.63
2022-11-17T17:40:50.795Z,9.60
2022-11-17T17:46:01.188Z,10.93
2022-11-17T17:51:17.057Z,11.90
2022-11-17T17:56:21.760Z,10.23
2022-11-17T18:01:28.579Z,9.87
2022-11-17T18:06:41.193Z,10.03
2022-11-17T18:11:49.377Z,12.47
2022-11-17T18:16:53.969Z,16.57
2022-11-17T18:21:56.853Z,17.10
2022-11-17T18:26:59.784Z,14.60
2022-11-17T18:32:02.798Z,14.17
2022-11-17T18:37:05.740Z,16.47
2022-11-17T18:42:09.271Z,18.03
2022-11-17T18:47:13.606Z,24.37
2022-11-17T18:52:16.608Z,26.20
2022-11-17T18:57:19.556Z,21.17
2022-11-17T19:02:22.548Z,20.57
2022-11-17T19:07:25.772Z,21.13
2022-11-17T19:12:28.616Z,21.53
2022-11-17T19:17:31.579Z,19.17
2022-11-17T19:22:35.338Z,23.60
2022-11-17T19:27:38.006Z,22.77
2022-11-17T19:32:41.066Z,22.17
2022-11-17T19:37:43.872Z,22.80
2022-11-17T19:42:51.286Z,18.00
2022-11-17T19:47:54.106Z,19.13
2022-11-17T19:52:57.620Z,15.97
2022-11-17T19:58:00.398Z,17.33
2022-11-17T20:03:03.527Z,18.60
2022-11-17T20:08:06.707Z,24.87
2022-11-17T20:13:09.582Z,20.33
2022-11-17T20:18:12.945Z,18.37
2022-11-17T20:23:15.869Z,23.00
2022-11-17T20:28:18.800Z,22.37
2022-11-17T20:33:22.949Z,19.90
2022-11-17T20:38:25.812Z,18.27
2022-11-17T20:43:29.678Z,19.27
2022-11-17T20:48:35.378Z,15.57
2022-11-17T20:53:39.519Z,16.17
2022-11-17T20:58:43.215Z,22.77
2022-11-17T21:03:46.124Z,20.47
2022-11-17T21:08:49.043Z,14.63
2022-11-17T21:13:51.949Z,20.93
2022-11-17T21:18:55.041Z,17.90
2022-11-17T21:23:58.202Z,21.70
2022-11-17T21:29:06.490Z,21.53
2022-11-17T21:34:16.719Z,25.33
2022-11-17T21:39:19.829Z,24.87
2022-11-17T21:44:22.830Z,17.17
2022-11-17T21:49:25.781Z,19.23
2022-11-17T21:54:28.750Z,17.83
2022-11-17T21:59:31.631Z,14.03
2022-11-17T22:04:34.542Z,15.40
2022-11-17T22:09:37.515Z,16.43
2022-11-17T22:14:40.413Z,11.43
2022-11-17T22:19:43.868Z,13.60
2022-11-17T22:24:49.798Z,15.43
2022-11-17T22:29:53.294Z,16.50
2022-11-17T22:34:56.185Z,18.07
2022-11-17T22:39:59.039Z,15.30
2022-11-17T22:45:01.960Z,14.20
2022-11-17T22:50:05.692Z,16.17
2022-11-17T22:55:08.965Z,15.33
2022-11-17T23:00:13.148Z,16.77
2022-11-17T23:05:16.176Z,13.53
2022-11-17T23:10:19.219Z,15.83
2022-11-17T23:15:22.232Z,12.93
2022-11-17T23:20:25.738Z,15.43
2022-11-17T23:25:28.704Z,15.37
2022-11-17T23:30:31.635Z,16.43
2022-11-17T23:35:34.704Z,20.00
2022-11-17T23:40:37.594Z,18.57
2022-11-17T23:45:40.504Z,16.37
2022-11-17T23:50:43.399Z,18.23
2022-11-17T23:55:55.206Z,13.70
